Airfield :
LOGIN :

Register | Disclaimer

   EN    FR    IT 

 










Legend :    VFR   Marginal VFR   IFR   Intensive IFR   Very Intensive IFR
Visi :
Ceiling :
>= 8 km
>= 3000ft
5 to 8 km
1000 to 3000 ft
1500m to 5 km
500 to 1000 ft
800 to 1500m
200 to 500 ft
< 800m
< 200 ft
Symbols :   Thunderstorms  Fog  Heavy snow  Heavy precipitations  Wind > 20 kt
SIGMETs :     Misc.  Thunderstorms  Icing  Turbulence  Mountain Waves  Volcanic Ashes






- Airport Elevation : 392 ft
- IATA code : CDG


LFPG - Paris-Aeroport Charles De Gaulle

CURRENT METAR :
  • 150400Z 01007KT 8000 NSC 02/M00 Q1029 NOSIG

EXPIRED METARs :
  • 150330Z 01007KT 8000 NSC 02/M00 Q1029 NOSIG
  • 150300Z 36007KT 8000 NSC 03/00 Q1029 NOSIG
  • 150230Z 02009KT 8000 NSC 03/00 Q1028 NOSIG
  • 150200Z 36009KT 360V140 8000 NSC 03/00 Q1028 NOSIG
  • 150130Z 01007KT 360V130 8000 NSC 03/00 Q1029 NOSIG

TAF TAF LFPG
Valid from the 15 at 00:00 until the 16 at 06:00 UTC


142300Z 1500/1606 02012KT 8000 NSC TX10/1515Z TN01/1505Z
BECMG 1506/1508 CAVOK
PROB40
TEMPO 1515/1518 VRB15G25KT 4000 -SHRA SCT040TCU
ATIS : +33 1 48 62 10 92



MET'MAP, your aeronautical weather chart ! - Copyright ORBIFLY December 2007 - Disclaimer

ORBIFLY MET'MAP TEAM :

Programming & Development : Alexandra Zaïnal
Concept & original design : Baudouin d'Aumeries
Assistance for programming : Marc-Olivier Méhu
Technical & hardware support : Manuel Goepfert

Contact : metmap@orbifly.com




SOURCES & CREDITS :

   NOAA